sensor_id;sensor_type;location;lat;lon;timestamp;P1;durP1;ratioP1;P2;durP2;ratioP2
12687;SDS011;6408;59.388;17.798;2023-07-02T00:00:02;2.08;;;1.75;;
12687;SDS011;6408;59.388;17.798;2023-07-02T00:02:32;1.85;;;1.73;;
12687;SDS011;6408;59.388;17.798;2023-07-02T00:05:00;2.15;;;1.80;;
12687;SDS011;6408;59.388;17.798;2023-07-02T00:07:28;2.20;;;1.63;;
12687;SDS011;6408;59.388;17.798;2023-07-02T00:09:56;1.90;;;1.80;;
12687;SDS011;6408;59.388;17.798;2023-07-02T00:12:24;6.28;;;1.95;;
12687;SDS011;6408;59.388;17.798;2023-07-02T00:14:51;2.10;;;1.90;;
12687;SDS011;6408;59.388;17.798;2023-07-02T00:17:19;3.42;;;1.75;;
12687;SDS011;6408;59.388;17.798;2023-07-02T00:19:48;2.88;;;2.10;;
12687;SDS011;6408;59.388;17.798;2023-07-02T00:22:16;2.67;;;1.77;;
12687;SDS011;6408;59.388;17.798;2023-07-02T00:24:44;2.10;;;1.80;;
12687;SDS011;6408;59.388;17.798;2023-07-02T00:27:12;2.35;;;2.03;;
12687;SDS011;6408;59.388;17.798;2023-07-02T00:29:39;2.83;;;2.25;;
12687;SDS011;6408;59.388;17.798;2023-07-02T00:32:07;2.47;;;2.08;;
12687;SDS011;6408;59.388;17.798;2023-07-02T00:34:35;2.80;;;2.20;;
12687;SDS011;6408;59.388;17.798;2023-07-02T00:37:04;6.45;;;4.60;;
12687;SDS011;6408;59.388;17.798;2023-07-02T00:39:32;7.13;;;4.20;;
12687;SDS011;6408;59.388;17.798;2023-07-02T00:42:00;5.63;;;3.63;;
12687;SDS011;6408;59.388;17.798;2023-07-02T00:44:29;5.80;;;3.63;;
12687;SDS011;6408;59.388;17.798;2023-07-02T00:46:57;3.10;;;2.80;;
12687;SDS011;6408;59.388;17.798;2023-07-02T00:49:24;2.40;;;2.20;;
12687;SDS011;6408;59.388;17.798;2023-07-02T00:51:52;3.75;;;2.92;;
12687;SDS011;6408;59.388;17.798;2023-07-02T00:54:22;3.50;;;2.60;;
12687;SDS011;6408;59.388;17.798;2023-07-02T00:56:50;2.83;;;2.15;;
12687;SDS011;6408;59.388;17.798;2023-07-02T00:59:17;2.90;;;2.50;;
12687;SDS011;6408;59.388;17.798;2023-07-02T01:01:45;2.35;;;2.00;;
12687;SDS011;6408;59.388;17.798;2023-07-02T01:04:16;2.60;;;2.05;;
12687;SDS011;6408;59.388;17.798;2023-07-02T01:06:45;2.88;;;2.28;;
12687;SDS011;6408;59.388;17.798;2023-07-02T01:09:13;2.63;;;2.00;;
12687;SDS011;6408;59.388;17.798;2023-07-02T01:11:43;3.10;;;2.10;;
12687;SDS011;6408;59.388;17.798;2023-07-02T01:14:13;2.22;;;2.03;;
12687;SDS011;6408;59.388;17.798;2023-07-02T01:16:43;3.90;;;2.13;;
12687;SDS011;6408;59.388;17.798;2023-07-02T01:19:16;3.20;;;2.00;;
12687;SDS011;6408;59.388;17.798;2023-07-02T01:21:49;5.97;;;2.30;;
12687;SDS011;6408;59.388;17.798;2023-07-02T01:24:17;2.13;;;1.92;;
12687;SDS011;6408;59.388;17.798;2023-07-02T01:26:46;2.72;;;2.10;;
12687;SDS011;6408;59.388;17.798;2023-07-02T01:29:17;2.30;;;2.10;;
12687;SDS011;6408;59.388;17.798;2023-07-02T01:31:46;2.45;;;2.20;;
12687;SDS011;6408;59.388;17.798;2023-07-02T01:34:14;3.63;;;2.35;;
12687;SDS011;6408;59.388;17.798;2023-07-02T01:36:42;4.00;;;2.15;;
12687;SDS011;6408;59.388;17.798;2023-07-02T01:39:11;2.10;;;1.98;;
12687;SDS011;6408;59.388;17.798;2023-07-02T01:41:41;2.00;;;1.90;;
12687;SDS011;6408;59.388;17.798;2023-07-02T01:44:11;2.42;;;2.22;;
12687;SDS011;6408;59.388;17.798;2023-07-02T01:46:39;2.10;;;1.98;;
12687;SDS011;6408;59.388;17.798;2023-07-02T01:49:07;2.20;;;2.05;;
12687;SDS011;6408;59.388;17.798;2023-07-02T01:51:34;2.33;;;2.13;;
12687;SDS011;6408;59.388;17.798;2023-07-02T01:54:03;2.40;;;2.15;;
12687;SDS011;6408;59.388;17.798;2023-07-02T01:56:33;2.40;;;2.20;;
12687;SDS011;6408;59.388;17.798;2023-07-02T01:59:00;3.10;;;2.10;;
12687;SDS011;6408;59.388;17.798;2023-07-02T02:01:28;2.47;;;2.28;;
12687;SDS011;6408;59.388;17.798;2023-07-02T02:03:55;2.63;;;2.38;;
12687;SDS011;6408;59.388;17.798;2023-07-02T02:06:22;2.80;;;2.20;;
12687;SDS011;6408;59.388;17.798;2023-07-02T02:08:50;2.30;;;2.10;;
12687;SDS011;6408;59.388;17.798;2023-07-02T02:11:18;2.38;;;2.05;;
12687;SDS011;6408;59.388;17.798;2023-07-02T02:13:48;2.72;;;2.33;;
12687;SDS011;6408;59.388;17.798;2023-07-02T02:16:15;2.42;;;2.22;;
12687;SDS011;6408;59.388;17.798;2023-07-02T02:18:43;3.03;;;2.30;;
12687;SDS011;6408;59.388;17.798;2023-07-02T02:21:11;2.38;;;2.17;;
12687;SDS011;6408;59.388;17.798;2023-07-02T02:23:38;2.63;;;2.42;;
12687;SDS011;6408;59.388;17.798;2023-07-02T02:26:06;3.33;;;2.20;;
12687;SDS011;6408;59.388;17.798;2023-07-02T02:28:34;2.50;;;2.30;;
12687;SDS011;6408;59.388;17.798;2023-07-02T02:31:03;2.78;;;2.33;;
12687;SDS011;6408;59.388;17.798;2023-07-02T02:33:31;2.85;;;2.10;;
12687;SDS011;6408;59.388;17.798;2023-07-02T02:36:00;2.38;;;2.17;;
12687;SDS011;6408;59.388;17.798;2023-07-02T02:38:28;2.38;;;1.98;;
12687;SDS011;6408;59.388;17.798;2023-07-02T02:40:55;3.33;;;2.15;;
12687;SDS011;6408;59.388;17.798;2023-07-02T02:43:23;2.75;;;2.50;;
12687;SDS011;6408;59.388;17.798;2023-07-02T02:45:51;2.60;;;2.40;;
12687;SDS011;6408;59.388;17.798;2023-07-02T02:48:20;2.50;;;2.00;;
12687;SDS011;6408;59.388;17.798;2023-07-02T02:50:48;2.75;;;2.55;;
12687;SDS011;6408;59.388;17.798;2023-07-02T02:53:16;2.88;;;2.58;;
12687;SDS011;6408;59.388;17.798;2023-07-02T02:55:43;2.30;;;2.10;;
12687;SDS011;6408;59.388;17.798;2023-07-02T02:58:11;2.53;;;2.33;;
12687;SDS011;6408;59.388;17.798;2023-07-02T03:00:39;2.55;;;2.35;;
12687;SDS011;6408;59.388;17.798;2023-07-02T03:03:10;3.42;;;2.25;;
12687;SDS011;6408;59.388;17.798;2023-07-02T03:05:40;2.33;;;2.13;;
12687;SDS011;6408;59.388;17.798;2023-07-02T03:08:09;3.67;;;2.33;;
12687;SDS011;6408;59.388;17.798;2023-07-02T03:10:36;3.17;;;2.63;;
12687;SDS011;6408;59.388;17.798;2023-07-02T03:13:04;2.60;;;2.40;;
12687;SDS011;6408;59.388;17.798;2023-07-02T03:15:32;2.60;;;2.40;;
12687;SDS011;6408;59.388;17.798;2023-07-02T03:17:59;2.85;;;2.58;;
12687;SDS011;6408;59.388;17.798;2023-07-02T03:20:27;3.83;;;2.28;;
12687;SDS011;6408;59.388;17.798;2023-07-02T03:22:56;3.72;;;2.47;;
12687;SDS011;6408;59.388;17.798;2023-07-02T03:25:24;2.60;;;2.40;;
12687;SDS011;6408;59.388;17.798;2023-07-02T03:27:51;2.65;;;2.45;;
12687;SDS011;6408;59.388;17.798;2023-07-02T03:30:19;2.83;;;2.35;;
12687;SDS011;6408;59.388;17.798;2023-07-02T03:32:47;2.78;;;2.35;;
12687;SDS011;6408;59.388;17.798;2023-07-02T03:35:14;2.38;;;2.28;;
12687;SDS011;6408;59.388;17.798;2023-07-02T03:37:42;2.70;;;2.50;;
12687;SDS011;6408;59.388;17.798;2023-07-02T03:40:13;2.85;;;2.42;;
12687;SDS011;6408;59.388;17.798;2023-07-02T03:42:41;3.85;;;2.28;;
12687;SDS011;6408;59.388;17.798;2023-07-02T03:45:10;3.08;;;2.47;;
12687;SDS011;6408;59.388;17.798;2023-07-02T03:47:37;3.00;;;2.30;;
12687;SDS011;6408;59.388;17.798;2023-07-02T03:50:05;2.88;;;2.63;;
12687;SDS011;6408;59.388;17.798;2023-07-02T03:52:33;2.65;;;2.45;;
12687;SDS011;6408;59.388;17.798;2023-07-02T03:55:00;2.38;;;2.13;;
12687;SDS011;6408;59.388;17.798;2023-07-02T03:57:30;2.55;;;2.35;;
12687;SDS011;6408;59.388;17.798;2023-07-02T03:59:58;2.85;;;2.50;;
12687;SDS011;6408;59.388;17.798;2023-07-02T04:02:25;3.30;;;2.38;;
12687;SDS011;6408;59.388;17.798;2023-07-02T04:04:53;2.55;;;2.35;;
12687;SDS011;6408;59.388;17.798;2023-07-02T04:07:20;4.25;;;2.92;;
12687;SDS011;6408;59.388;17.798;2023-07-02T04:09:48;2.40;;;2.20;;
12687;SDS011;6408;59.388;17.798;2023-07-02T04:12:16;2.80;;;2.55;;
12687;SDS011;6408;59.388;17.798;2023-07-02T04:14:45;3.65;;;2.60;;
12687;SDS011;6408;59.388;17.798;2023-07-02T04:17:13;2.67;;;2.42;;
12687;SDS011;6408;59.388;17.798;2023-07-02T04:19:40;2.50;;;2.30;;
12687;SDS011;6408;59.388;17.798;2023-07-02T04:22:08;2.60;;;2.33;;
12687;SDS011;6408;59.388;17.798;2023-07-02T04:24:36;2.88;;;2.22;;
12687;SDS011;6408;59.388;17.798;2023-07-02T04:27:03;4.20;;;2.40;;
12687;SDS011;6408;59.388;17.798;2023-07-02T04:29:32;3.03;;;2.50;;
12687;SDS011;6408;59.388;17.798;2023-07-02T04:32:01;2.72;;;2.42;;
12687;SDS011;6408;59.388;17.798;2023-07-02T04:34:29;2.97;;;2.17;;
12687;SDS011;6408;59.388;17.798;2023-07-02T04:36:56;3.17;;;2.70;;
12687;SDS011;6408;59.388;17.798;2023-07-02T04:39:24;2.50;;;2.30;;
12687;SDS011;6408;59.388;17.798;2023-07-02T04:41:51;2.50;;;2.30;;
12687;SDS011;6408;59.388;17.798;2023-07-02T04:44:19;2.42;;;2.22;;
12687;SDS011;6408;59.388;17.798;2023-07-02T04:46:54;2.50;;;2.30;;
12687;SDS011;6408;59.388;17.798;2023-07-02T04:49:24;3.80;;;2.40;;
12687;SDS011;6408;59.388;17.798;2023-07-02T04:51:52;2.22;;;2.03;;
12687;SDS011;6408;59.388;17.798;2023-07-02T04:54:20;2.38;;;2.17;;
12687;SDS011;6408;59.388;17.798;2023-07-02T04:56:48;2.35;;;2.15;;
12687;SDS011;6408;59.388;17.798;2023-07-02T04:59:16;3.10;;;2.38;;
12687;SDS011;6408;59.388;17.798;2023-07-02T05:01:43;3.40;;;2.17;;
12687;SDS011;6408;59.388;17.798;2023-07-02T05:04:11;3.15;;;2.35;;
12687;SDS011;6408;59.388;17.798;2023-07-02T05:06:40;3.78;;;2.28;;
12687;SDS011;6408;59.388;17.798;2023-07-02T05:09:08;1.90;;;1.80;;
12687;SDS011;6408;59.388;17.798;2023-07-02T05:11:35;2.17;;;2.05;;
12687;SDS011;6408;59.388;17.798;2023-07-02T05:14:03;2.40;;;2.20;;
12687;SDS011;6408;59.388;17.798;2023-07-02T05:16:31;2.78;;;2.05;;
12687;SDS011;6408;59.388;17.798;2023-07-02T05:18:58;2.53;;;2.20;;
12687;SDS011;6408;59.388;17.798;2023-07-02T05:21:26;2.30;;;2.10;;
12687;SDS011;6408;59.388;17.798;2023-07-02T05:23:56;2.80;;;2.25;;
12687;SDS011;6408;59.388;17.798;2023-07-02T05:26:23;2.42;;;2.22;;
12687;SDS011;6408;59.388;17.798;2023-07-02T05:28:52;2.45;;;1.90;;
12687;SDS011;6408;59.388;17.798;2023-07-02T05:31:19;1.90;;;1.80;;
12687;SDS011;6408;59.388;17.798;2023-07-02T05:33:47;2.88;;;2.00;;
12687;SDS011;6408;59.388;17.798;2023-07-02T05:36:15;2.08;;;1.90;;
12687;SDS011;6408;59.388;17.798;2023-07-02T05:38:42;1.75;;;1.60;;
12687;SDS011;6408;59.388;17.798;2023-07-02T05:41:12;1.92;;;1.75;;
12687;SDS011;6408;59.388;17.798;2023-07-02T05:43:45;4.88;;;1.90;;
12687;SDS011;6408;59.388;17.798;2023-07-02T05:46:12;2.40;;;1.88;;
12687;SDS011;6408;59.388;17.798;2023-07-02T05:48:40;3.00;;;1.95;;
12687;SDS011;6408;59.388;17.798;2023-07-02T05:51:08;2.30;;;2.10;;
12687;SDS011;6408;59.388;17.798;2023-07-02T05:53:36;2.30;;;2.03;;
12687;SDS011;6408;59.388;17.798;2023-07-02T05:56:04;2.35;;;1.83;;
12687;SDS011;6408;59.388;17.798;2023-07-02T05:58:33;3.05;;;1.90;;
12687;SDS011;6408;59.388;17.798;2023-07-02T06:01:01;2.10;;;1.77;;
12687;SDS011;6408;59.388;17.798;2023-07-02T06:03:31;2.22;;;1.95;;
12687;SDS011;6408;59.388;17.798;2023-07-02T06:05:58;2.00;;;1.80;;
12687;SDS011;6408;59.388;17.798;2023-07-02T06:08:26;2.95;;;1.70;;
12687;SDS011;6408;59.388;17.798;2023-07-02T06:10:53;2.38;;;1.73;;
12687;SDS011;6408;59.388;17.798;2023-07-02T06:13:24;2.05;;;1.90;;
12687;SDS011;6408;59.388;17.798;2023-07-02T06:15:54;2.03;;;1.83;;
12687;SDS011;6408;59.388;17.798;2023-07-02T06:18:22;2.33;;;1.88;;
12687;SDS011;6408;59.388;17.798;2023-07-02T06:20:50;2.08;;;1.83;;
12687;SDS011;6408;59.388;17.798;2023-07-02T06:23:18;3.30;;;1.98;;
12687;SDS011;6408;59.388;17.798;2023-07-02T06:25:45;1.80;;;1.70;;
12687;SDS011;6408;59.388;17.798;2023-07-02T06:28:13;2.38;;;2.17;;
12687;SDS011;6408;59.388;17.798;2023-07-02T06:30:41;1.90;;;1.80;;
12687;SDS011;6408;59.388;17.798;2023-07-02T06:33:10;2.10;;;1.80;;
12687;SDS011;6408;59.388;17.798;2023-07-02T06:35:38;2.13;;;1.90;;
12687;SDS011;6408;59.388;17.798;2023-07-02T06:38:05;2.40;;;1.85;;
12687;SDS011;6408;59.388;17.798;2023-07-02T06:40:33;3.97;;;2.08;;
12687;SDS011;6408;59.388;17.798;2023-07-02T06:43:01;2.40;;;2.20;;
12687;SDS011;6408;59.388;17.798;2023-07-02T06:45:28;2.60;;;2.10;;
12687;SDS011;6408;59.388;17.798;2023-07-02T06:47:56;2.42;;;2.22;;
12687;SDS011;6408;59.388;17.798;2023-07-02T06:50:25;2.65;;;1.90;;
12687;SDS011;6408;59.388;17.798;2023-07-02T06:52:53;1.92;;;1.73;;
12687;SDS011;6408;59.388;17.798;2023-07-02T06:55:20;2.45;;;2.25;;
12687;SDS011;6408;59.388;17.798;2023-07-02T06:57:49;2.00;;;1.80;;
12687;SDS011;6408;59.388;17.798;2023-07-02T07:00:16;2.50;;;2.28;;
12687;SDS011;6408;59.388;17.798;2023-07-02T07:02:44;2.17;;;1.98;;
12687;SDS011;6408;59.388;17.798;2023-07-02T07:05:11;2.83;;;2.00;;
12687;SDS011;6408;59.388;17.798;2023-07-02T07:07:41;2.20;;;2.00;;
12687;SDS011;6408;59.388;17.798;2023-07-02T07:10:09;2.30;;;2.10;;
12687;SDS011;6408;59.388;17.798;2023-07-02T07:12:37;2.05;;;1.85;;
12687;SDS011;6408;59.388;17.798;2023-07-02T07:15:05;2.10;;;1.90;;
12687;SDS011;6408;59.388;17.798;2023-07-02T07:17:33;2.75;;;2.00;;
12687;SDS011;6408;59.388;17.798;2023-07-02T07:20:01;2.42;;;1.90;;
12687;SDS011;6408;59.388;17.798;2023-07-02T07:22:30;2.10;;;1.90;;
12687;SDS011;6408;59.388;17.798;2023-07-02T07:24:59;2.28;;;1.90;;
12687;SDS011;6408;59.388;17.798;2023-07-02T07:27:27;2.20;;;2.00;;
12687;SDS011;6408;59.388;17.798;2023-07-02T07:29:54;2.30;;;2.10;;
12687;SDS011;6408;59.388;17.798;2023-07-02T07:32:22;2.38;;;2.17;;
12687;SDS011;6408;59.388;17.798;2023-07-02T07:34:50;2.20;;;2.00;;
12687;SDS011;6408;59.388;17.798;2023-07-02T07:37:17;2.30;;;2.10;;
12687;SDS011;6408;59.388;17.798;2023-07-02T07:39:45;2.22;;;2.03;;
12687;SDS011;6408;59.388;17.798;2023-07-02T07:42:15;3.35;;;2.45;;
12687;SDS011;6408;59.388;17.798;2023-07-02T07:44:44;4.82;;;2.38;;
12687;SDS011;6408;59.388;17.798;2023-07-02T07:47:12;3.03;;;2.10;;
12687;SDS011;6408;59.388;17.798;2023-07-02T07:49:40;3.05;;;2.20;;
12687;SDS011;6408;59.388;17.798;2023-07-02T07:52:08;3.22;;;2.00;;
12687;SDS011;6408;59.388;17.798;2023-07-02T07:54:35;2.63;;;2.30;;
12687;SDS011;6408;59.388;17.798;2023-07-02T07:57:03;3.13;;;2.20;;
12687;SDS011;6408;59.388;17.798;2023-07-02T07:59:33;3.05;;;2.38;;
12687;SDS011;6408;59.388;17.798;2023-07-02T08:02:01;2.30;;;2.10;;
12687;SDS011;6408;59.388;17.798;2023-07-02T08:04:28;2.33;;;2.13;;
12687;SDS011;6408;59.388;17.798;2023-07-02T08:06:56;2.50;;;2.30;;
12687;SDS011;6408;59.388;17.798;2023-07-02T08:09:24;2.83;;;2.05;;
12687;SDS011;6408;59.388;17.798;2023-07-02T08:11:51;2.60;;;2.40;;
12687;SDS011;6408;59.388;17.798;2023-07-02T08:14:18;2.75;;;2.40;;
12687;SDS011;6408;59.388;17.798;2023-07-02T08:16:48;3.05;;;2.33;;
12687;SDS011;6408;59.388;17.798;2023-07-02T08:19:16;2.47;;;2.25;;
12687;SDS011;6408;59.388;17.798;2023-07-02T08:21:45;4.07;;;2.88;;
12687;SDS011;6408;59.388;17.798;2023-07-02T08:24:13;5.50;;;2.83;;
12687;SDS011;6408;59.388;17.798;2023-07-02T08:26:40;2.80;;;2.55;;
12687;SDS011;6408;59.388;17.798;2023-07-02T08:29:09;2.90;;;2.60;;
12687;SDS011;6408;59.388;17.798;2023-07-02T08:31:37;4.13;;;2.97;;
12687;SDS011;6408;59.388;17.798;2023-07-02T08:34:06;4.07;;;3.10;;
12687;SDS011;6408;59.388;17.798;2023-07-02T08:36:34;4.05;;;2.80;;
12687;SDS011;6408;59.388;17.798;2023-07-02T08:39:02;4.35;;;2.90;;
12687;SDS011;6408;59.388;17.798;2023-07-02T08:41:30;4.75;;;3.15;;
12687;SDS011;6408;59.388;17.798;2023-07-02T08:44:08;4.32;;;2.78;;
12687;SDS011;6408;59.388;17.798;2023-07-02T08:46:37;4.15;;;3.00;;
12687;SDS011;6408;59.388;17.798;2023-07-02T08:49:07;3.55;;;3.08;;
12687;SDS011;6408;59.388;17.798;2023-07-02T08:51:35;4.45;;;2.78;;
12687;SDS011;6408;59.388;17.798;2023-07-02T08:54:03;7.30;;;3.60;;
12687;SDS011;6408;59.388;17.798;2023-07-02T08:56:31;5.90;;;3.50;;
12687;SDS011;6408;59.388;17.798;2023-07-02T08:58:58;3.63;;;2.90;;
12687;SDS011;6408;59.388;17.798;2023-07-02T09:01:26;3.90;;;3.30;;
12687;SDS011;6408;59.388;17.798;2023-07-02T09:03:57;4.47;;;2.85;;
12687;SDS011;6408;59.388;17.798;2023-07-02T09:06:27;4.35;;;3.20;;
12687;SDS011;6408;59.388;17.798;2023-07-02T09:09:03;3.47;;;2.90;;
12687;SDS011;6408;59.388;17.798;2023-07-02T09:11:31;3.20;;;2.97;;
12687;SDS011;6408;59.388;17.798;2023-07-02T09:13:58;3.90;;;2.97;;
12687;SDS011;6408;59.388;17.798;2023-07-02T09:16:27;3.53;;;3.15;;
12687;SDS011;6408;59.388;17.798;2023-07-02T09:18:57;3.80;;;3.13;;
12687;SDS011;6408;59.388;17.798;2023-07-02T09:21:28;3.38;;;3.08;;
12687;SDS011;6408;59.388;17.798;2023-07-02T09:24:13;3.33;;;3.03;;
12687;SDS011;6408;59.388;17.798;2023-07-02T09:26:45;3.65;;;2.88;;
12687;SDS011;6408;59.388;17.798;2023-07-02T09:29:18;3.38;;;3.05;;
12687;SDS011;6408;59.388;17.798;2023-07-02T09:31:48;4.32;;;3.10;;
12687;SDS011;6408;59.388;17.798;2023-07-02T09:34:16;4.45;;;3.60;;
12687;SDS011;6408;59.388;17.798;2023-07-02T09:36:46;4.57;;;3.38;;
12687;SDS011;6408;59.388;17.798;2023-07-02T09:39:19;4.10;;;2.95;;
12687;SDS011;6408;59.388;17.798;2023-07-02T09:41:47;3.88;;;3.38;;
12687;SDS011;6408;59.388;17.798;2023-07-02T09:44:16;3.58;;;2.67;;
12687;SDS011;6408;59.388;17.798;2023-07-02T09:46:45;4.53;;;3.60;;
12687;SDS011;6408;59.388;17.798;2023-07-02T09:49:20;5.10;;;4.00;;
12687;SDS011;6408;59.388;17.798;2023-07-02T09:51:50;3.47;;;3.05;;
12687;SDS011;6408;59.388;17.798;2023-07-02T09:54:18;3.40;;;3.10;;
12687;SDS011;6408;59.388;17.798;2023-07-02T09:56:47;3.40;;;3.03;;
12687;SDS011;6408;59.388;17.798;2023-07-02T09:59:14;5.60;;;3.65;;
12687;SDS011;6408;59.388;17.798;2023-07-02T10:01:42;3.42;;;3.10;;
12687;SDS011;6408;59.388;17.798;2023-07-02T10:04:11;5.07;;;3.28;;
12687;SDS011;6408;59.388;17.798;2023-07-02T10:06:46;5.35;;;3.75;;
12687;SDS011;6408;59.388;17.798;2023-07-02T10:09:17;4.53;;;3.83;;
12687;SDS011;6408;59.388;17.798;2023-07-02T10:11:45;5.30;;;4.07;;
12687;SDS011;6408;59.388;17.798;2023-07-02T10:14:13;4.53;;;3.60;;
12687;SDS011;6408;59.388;17.798;2023-07-02T10:16:50;5.30;;;4.20;;
12687;SDS011;6408;59.388;17.798;2023-07-02T10:19:19;4.45;;;4.05;;
12687;SDS011;6408;59.388;17.798;2023-07-02T10:21:59;4.78;;;3.53;;
12687;SDS011;6408;59.388;17.798;2023-07-02T10:24:29;4.45;;;3.70;;
12687;SDS011;6408;59.388;17.798;2023-07-02T10:26:58;5.13;;;4.00;;
12687;SDS011;6408;59.388;17.798;2023-07-02T10:29:27;6.32;;;4.28;;
12687;SDS011;6408;59.388;17.798;2023-07-02T10:31:56;3.88;;;3.47;;
12687;SDS011;6408;59.388;17.798;2023-07-02T10:34:31;4.95;;;3.83;;
12687;SDS011;6408;59.388;17.798;2023-07-02T10:37:01;4.28;;;3.88;;
12687;SDS011;6408;59.388;17.798;2023-07-02T10:39:38;8.13;;;4.15;;
12687;SDS011;6408;59.388;17.798;2023-07-02T10:42:06;4.47;;;4.07;;
12687;SDS011;6408;59.388;17.798;2023-07-02T10:44:47;4.55;;;3.90;;
12687;SDS011;6408;59.388;17.798;2023-07-02T10:47:16;4.68;;;4.07;;
12687;SDS011;6408;59.388;17.798;2023-07-02T10:49:44;4.18;;;3.78;;
12687;SDS011;6408;59.388;17.798;2023-07-02T10:52:12;4.88;;;4.40;;
12687;SDS011;6408;59.388;17.798;2023-07-02T10:54:42;4.60;;;4.13;;
12687;SDS011;6408;59.388;17.798;2023-07-02T10:57:13;4.60;;;4.20;;
12687;SDS011;6408;59.388;17.798;2023-07-02T10:59:45;5.10;;;4.03;;
12687;SDS011;6408;59.388;17.798;2023-07-02T11:02:13;5.68;;;4.00;;
12687;SDS011;6408;59.388;17.798;2023-07-02T11:04:40;5.82;;;4.28;;
12687;SDS011;6408;59.388;17.798;2023-07-02T11:07:09;4.47;;;4.07;;
12687;SDS011;6408;59.388;17.798;2023-07-02T11:09:37;4.80;;;4.30;;
12687;SDS011;6408;59.388;17.798;2023-07-02T11:12:08;3.95;;;3.55;;
12687;SDS011;6408;59.388;17.798;2023-07-02T11:14:36;4.70;;;4.15;;
12687;SDS011;6408;59.388;17.798;2023-07-02T11:17:05;5.00;;;3.95;;
12687;SDS011;6408;59.388;17.798;2023-07-02T11:19:33;5.60;;;4.18;;
12687;SDS011;6408;59.388;17.798;2023-07-02T11:22:01;4.53;;;3.90;;
12687;SDS011;6408;59.388;17.798;2023-07-02T11:24:30;4.50;;;4.10;;
12687;SDS011;6408;59.388;17.798;2023-07-02T11:26:58;5.68;;;4.10;;
12687;SDS011;6408;59.388;17.798;2023-07-02T11:29:29;3.75;;;3.45;;
12687;SDS011;6408;59.388;17.798;2023-07-02T11:32:04;4.43;;;4.03;;
12687;SDS011;6408;59.388;17.798;2023-07-02T11:34:32;4.07;;;3.72;;
12687;SDS011;6408;59.388;17.798;2023-07-02T11:36:59;5.53;;;4.10;;
12687;SDS011;6408;59.388;17.798;2023-07-02T11:39:28;5.55;;;4.00;;
12687;SDS011;6408;59.388;17.798;2023-07-02T11:41:56;4.85;;;4.45;;
12687;SDS011;6408;59.388;17.798;2023-07-02T11:44:23;5.35;;;3.80;;
12687;SDS011;6408;59.388;17.798;2023-07-02T11:46:52;4.93;;;4.10;;
12687;SDS011;6408;59.388;17.798;2023-07-02T11:49:22;4.20;;;3.80;;
12687;SDS011;6408;59.388;17.798;2023-07-02T11:51:50;4.25;;;3.83;;
12687;SDS011;6408;59.388;17.798;2023-07-02T11:54:17;4.10;;;3.70;;
12687;SDS011;6408;59.388;17.798;2023-07-02T11:56:45;4.97;;;4.10;;
12687;SDS011;6408;59.388;17.798;2023-07-02T11:59:13;4.38;;;3.97;;
12687;SDS011;6408;59.388;17.798;2023-07-02T12:01:41;4.57;;;3.90;;
12687;SDS011;6408;59.388;17.798;2023-07-02T12:04:11;6.13;;;4.10;;
12687;SDS011;6408;59.388;17.798;2023-07-02T12:06:39;4.28;;;3.88;;
12687;SDS011;6408;59.388;17.798;2023-07-02T12:09:07;4.03;;;3.60;;
12687;SDS011;6408;59.388;17.798;2023-07-02T12:11:34;4.32;;;3.90;;
12687;SDS011;6408;59.388;17.798;2023-07-02T12:14:02;3.95;;;3.55;;
12687;SDS011;6408;59.388;17.798;2023-07-02T12:16:30;4.25;;;3.60;;
12687;SDS011;6408;59.388;17.798;2023-07-02T12:18:58;4.55;;;3.90;;
12687;SDS011;6408;59.388;17.798;2023-07-02T12:21:28;5.63;;;3.75;;
12687;SDS011;6408;59.388;17.798;2023-07-02T12:23:55;4.68;;;3.83;;
12687;SDS011;6408;59.388;17.798;2023-07-02T12:26:23;4.38;;;3.97;;
12687;SDS011;6408;59.388;17.798;2023-07-02T12:28:51;3.80;;;3.50;;
12687;SDS011;6408;59.388;17.798;2023-07-02T12:31:18;3.80;;;3.50;;
12687;SDS011;6408;59.388;17.798;2023-07-02T12:33:46;3.65;;;3.22;;
12687;SDS011;6408;59.388;17.798;2023-07-02T12:36:13;5.10;;;3.25;;
12687;SDS011;6408;59.388;17.798;2023-07-02T12:38:43;4.05;;;3.60;;
12687;SDS011;6408;59.388;17.798;2023-07-02T12:41:11;3.55;;;3.20;;
12687;SDS011;6408;59.388;17.798;2023-07-02T12:43:39;3.20;;;2.90;;
12687;SDS011;6408;59.388;17.798;2023-07-02T12:46:06;3.25;;;3.03;;
12687;SDS011;6408;59.388;17.798;2023-07-02T12:48:34;4.47;;;3.30;;
12687;SDS011;6408;59.388;17.798;2023-07-02T12:51:02;3.67;;;3.20;;
12687;SDS011;6408;59.388;17.798;2023-07-02T12:53:30;3.65;;;3.28;;
12687;SDS011;6408;59.388;17.798;2023-07-02T12:55:59;6.30;;;3.60;;
12687;SDS011;6408;59.388;17.798;2023-07-02T12:58:27;3.60;;;3.30;;
12687;SDS011;6408;59.388;17.798;2023-07-02T13:00:55;3.30;;;3.00;;
12687;SDS011;6408;59.388;17.798;2023-07-02T13:03:22;3.50;;;3.20;;
12687;SDS011;6408;59.388;17.798;2023-07-02T13:05:50;4.47;;;3.50;;
12687;SDS011;6408;59.388;17.798;2023-07-02T13:08:18;3.70;;;3.40;;
12687;SDS011;6408;59.388;17.798;2023-07-02T13:10:45;4.32;;;3.38;;
12687;SDS011;6408;59.388;17.798;2023-07-02T13:13:15;5.53;;;3.78;;
12687;SDS011;6408;59.388;17.798;2023-07-02T13:15:43;4.15;;;3.75;;
12687;SDS011;6408;59.388;17.798;2023-07-02T13:18:10;4.13;;;3.72;;
12687;SDS011;6408;59.388;17.798;2023-07-02T13:20:38;4.93;;;4.13;;
12687;SDS011;6408;59.388;17.798;2023-07-02T13:23:06;4.53;;;3.70;;
12687;SDS011;6408;59.388;17.798;2023-07-02T13:25:33;4.25;;;3.92;;
12687;SDS011;6408;59.388;17.798;2023-07-02T13:28:01;4.32;;;3.92;;
12687;SDS011;6408;59.388;17.798;2023-07-02T13:30:32;6.22;;;3.75;;
12687;SDS011;6408;59.388;17.798;2023-07-02T13:33:00;3.92;;;3.63;;
12687;SDS011;6408;59.388;17.798;2023-07-02T13:35:27;4.63;;;4.18;;
12687;SDS011;6408;59.388;17.798;2023-07-02T13:37:56;6.20;;;3.97;;
12687;SDS011;6408;59.388;17.798;2023-07-02T13:40:25;4.07;;;3.70;;
12687;SDS011;6408;59.388;17.798;2023-07-02T13:42:52;4.10;;;3.75;;
12687;SDS011;6408;59.388;17.798;2023-07-02T13:45:21;3.83;;;3.40;;
12687;SDS011;6408;59.388;17.798;2023-07-02T13:47:50;4.13;;;3.83;;
12687;SDS011;6408;59.388;17.798;2023-07-02T13:50:17;3.63;;;3.30;;
12687;SDS011;6408;59.388;17.798;2023-07-02T13:52:45;4.18;;;3.20;;
12687;SDS011;6408;59.388;17.798;2023-07-02T13:55:15;4.82;;;3.95;;
12687;SDS011;6408;59.388;17.798;2023-07-02T13:57:42;4.15;;;3.47;;
12687;SDS011;6408;59.388;17.798;2023-07-02T14:00:13;4.07;;;3.72;;
12687;SDS011;6408;59.388;17.798;2023-07-02T14:02:40;4.32;;;3.95;;
12687;SDS011;6408;59.388;17.798;2023-07-02T14:05:08;3.83;;;3.50;;
12687;SDS011;6408;59.388;17.798;2023-07-02T14:07:36;3.97;;;3.67;;
12687;SDS011;6408;59.388;17.798;2023-07-02T14:10:04;3.88;;;3.58;;
12687;SDS011;6408;59.388;17.798;2023-07-02T14:12:32;4.20;;;3.80;;
12687;SDS011;6408;59.388;17.798;2023-07-02T14:15:00;4.03;;;3.63;;
12687;SDS011;6408;59.388;17.798;2023-07-02T14:17:29;3.58;;;3.28;;
12687;SDS011;6408;59.388;17.798;2023-07-02T14:19:56;4.00;;;3.60;;
12687;SDS011;6408;59.388;17.798;2023-07-02T14:22:24;3.55;;;3.20;;
12687;SDS011;6408;59.388;17.798;2023-07-02T14:24:51;3.53;;;3.20;;
12687;SDS011;6408;59.388;17.798;2023-07-02T14:27:19;4.57;;;3.33;;
12687;SDS011;6408;59.388;17.798;2023-07-02T14:29:47;2.80;;;2.60;;
12687;SDS011;6408;59.388;17.798;2023-07-02T14:32:15;3.40;;;3.00;;
12687;SDS011;6408;59.388;17.798;2023-07-02T14:34:45;3.42;;;2.75;;
12687;SDS011;6408;59.388;17.798;2023-07-02T14:37:12;2.97;;;2.67;;
12687;SDS011;6408;59.388;17.798;2023-07-02T14:39:40;2.65;;;2.45;;
12687;SDS011;6408;59.388;17.798;2023-07-02T14:42:08;3.30;;;2.40;;
12687;SDS011;6408;59.388;17.798;2023-07-02T14:44:35;2.65;;;2.45;;
12687;SDS011;6408;59.388;17.798;2023-07-02T14:47:03;2.40;;;2.20;;
12687;SDS011;6408;59.388;17.798;2023-07-02T14:49:31;2.65;;;2.30;;
12687;SDS011;6408;59.388;17.798;2023-07-02T14:52:01;2.00;;;1.80;;
12687;SDS011;6408;59.388;17.798;2023-07-02T14:54:29;1.70;;;1.60;;